Qiryat Ata, Israel
Current Conditions -  °F | °C
As of 7:03 PM on Monday 24 Nov 2014 (Local Time) from LLHA Reporting Station
Scattered Clouds Scattered Clouds  
Wind Chill: 61°   Ceiling: Unl
Heat Index: 61°   Visibility: 6mi
Dew Point: 52°   Wind: 1mph
Humidity: 72%   Direction: NA
Pressure: 29.94"   Gusts: NA
Location:  32.8°N, 35.11°E
Report Text: LLHA 241603Z VRB01KT 9999 FEW025 SCT030 16/11 Q1014 RETSRA RMKSCT070
Loading
Personal Weather Stations






























Interactive Weather Map New forecast layout! Learn more

10-Day Weather Forecast

Advertisements
Track Severe Weather on mobile